createdAt,value
2019-05-04T00:00:32.166Z,10.50
2019-05-04T00:03:00.850Z,10.60
2019-05-04T00:05:31.099Z,10.70
2019-05-04T00:07:59.995Z,10.60
2019-05-04T00:10:28.662Z,10.50
2019-05-04T00:12:57.352Z,10.70
2019-05-04T00:15:26.076Z,10.80
2019-05-04T00:17:55.408Z,10.80
2019-05-04T00:20:25.486Z,10.50
2019-05-04T00:22:55.226Z,10.00
2019-05-04T00:25:25.586Z,9.90
2019-05-04T00:27:55.206Z,9.70
2019-05-04T00:30:24.665Z,9.50
2019-05-04T00:32:57.821Z,9.50
2019-05-04T00:35:44.630Z,9.50
2019-05-04T00:38:15.340Z,9.50
2019-05-04T00:40:44.399Z,9.20
2019-05-04T00:43:14.648Z,9.10
2019-05-04T00:45:45.246Z,8.90
2019-05-04T00:48:15.100Z,8.90
2019-05-04T00:50:44.816Z,8.60
2019-05-04T00:53:14.482Z,8.50
2019-05-04T00:55:47.851Z,8.50
2019-05-04T00:58:20.840Z,8.50
2019-05-04T01:00:52.374Z,8.50
2019-05-04T01:03:21.143Z,8.50
2019-05-04T01:05:50.110Z,8.50
2019-05-04T01:08:18.920Z,8.60
2019-05-04T01:10:47.585Z,8.60
2019-05-04T01:13:16.292Z,8.80
2019-05-04T01:15:45.003Z,8.50
2019-05-04T01:18:14.970Z,8.80
2019-05-04T01:20:44.703Z,8.70
2019-05-04T01:23:14.606Z,8.60
2019-05-04T01:25:45.227Z,8.50
2019-05-04T01:28:15.166Z,8.40
2019-05-04T01:30:45.235Z,8.30
2019-05-04T01:33:14.466Z,8.30
2019-05-04T01:35:45.337Z,8.60
2019-05-04T01:38:15.697Z,8.60
2019-05-04T01:40:45.999Z,8.60
2019-05-04T01:43:15.071Z,8.60
2019-05-04T01:45:45.022Z,8.50
2019-05-04T01:48:15.252Z,8.50
2019-05-04T01:50:45.282Z,8.40
2019-05-04T01:53:18.546Z,8.50
2019-05-04T01:55:47.255Z,8.40
2019-05-04T01:58:26.569Z,8.70
2019-05-04T02:00:56.417Z,8.80
2019-05-04T02:03:25.468Z,8.90
2019-05-04T02:05:55.014Z,8.70
2019-05-04T02:08:24.676Z,8.90
2019-05-04T02:10:54.470Z,8.70
2019-05-04T02:13:24.619Z,8.80
2019-05-04T02:15:55.325Z,8.60
2019-05-04T02:18:24.838Z,8.60
2019-05-04T02:20:55.227Z,8.40
2019-05-04T02:23:24.949Z,8.70
2019-05-04T02:25:55.452Z,8.50
2019-05-04T02:28:45.232Z,8.70
2019-05-04T02:31:16.565Z,8.40
2019-05-04T02:33:46.569Z,8.30
2019-05-04T02:36:15.795Z,8.10
2019-05-04T02:38:46.465Z,8.10
2019-05-04T02:41:21.025Z,8.20
2019-05-04T02:43:49.704Z,8.20
2019-05-04T02:46:18.431Z,8.50
2019-05-04T02:48:48.708Z,8.50
2019-05-04T02:51:20.269Z,8.50
2019-05-04T02:53:48.989Z,8.40
2019-05-04T02:56:17.675Z,8.80
2019-05-04T02:58:46.343Z,8.70
2019-05-04T03:01:16.468Z,8.80
2019-05-04T03:03:46.041Z,8.60
2019-05-04T03:06:15.654Z,8.90
2019-05-04T03:08:46.410Z,8.90
2019-05-04T03:11:16.330Z,8.90
2019-05-04T03:13:46.470Z,8.90
2019-05-04T03:16:15.836Z,9.30
2019-05-04T03:18:46.248Z,9.30
2019-05-04T03:21:35.975Z,9.20
2019-05-04T03:24:06.724Z,9.40
2019-05-04T03:26:36.176Z,9.20
2019-05-04T03:29:05.366Z,9.30
2019-05-04T03:31:38.793Z,9.20
2019-05-04T03:34:08.116Z,9.40
2019-05-04T03:36:40.601Z,9.10
2019-05-04T03:39:06.402Z,9.10
2019-05-04T03:41:35.387Z,9.10
2019-05-04T03:44:05.988Z,9.10
2019-05-04T03:46:48.273Z,9.60
2019-05-04T03:49:36.364Z,9.30
2019-05-04T03:52:06.070Z,9.30
2019-05-04T03:54:36.362Z,9.30
2019-05-04T03:57:05.598Z,9.50
2019-05-04T03:59:35.734Z,9.10
2019-05-04T04:02:05.965Z,9.50
2019-05-04T04:04:36.255Z,9.40
2019-05-04T04:07:05.499Z,9.50
2019-05-04T04:09:36.825Z,9.40
2019-05-04T04:12:05.357Z,9.50
2019-05-04T04:14:36.253Z,9.50
2019-05-04T04:17:08.877Z,9.40
2019-05-04T04:19:37.582Z,9.60
2019-05-04T04:22:06.276Z,9.70
2019-05-04T04:24:35.838Z,9.50
2019-05-04T04:27:08.760Z,9.70
2019-05-04T04:29:41.091Z,9.50
2019-05-04T04:32:08.750Z,9.50
2019-05-04T04:34:37.434Z,9.50
2019-05-04T04:37:06.403Z,9.70
2019-05-04T04:39:39.604Z,9.50
2019-05-04T04:42:06.253Z,9.40
2019-05-04T04:44:36.091Z,9.60
2019-05-04T04:47:06.248Z,9.60
2019-05-04T04:49:36.655Z,9.70
2019-05-04T04:52:06.778Z,9.70
2019-05-04T04:54:35.998Z,9.60
2019-05-04T04:57:06.359Z,9.70
2019-05-04T04:59:36.668Z,9.50
2019-05-04T05:02:05.875Z,9.60
2019-05-04T05:04:35.254Z,9.60
2019-05-04T05:07:05.110Z,9.40
2019-05-04T05:09:42.651Z,9.40
2019-05-04T05:12:04.923Z,9.40
2019-05-04T05:14:35.329Z,9.90
2019-05-04T05:17:04.503Z,9.60
2019-05-04T05:19:34.935Z,9.60
2019-05-04T05:22:05.460Z,9.50
2019-05-04T05:24:34.652Z,9.40
2019-05-04T05:27:05.086Z,9.50
2019-05-04T05:29:34.356Z,9.60
2019-05-04T05:32:22.980Z,9.70
2019-05-04T05:34:57.062Z,9.50
2019-05-04T05:37:25.775Z,9.80
2019-05-04T05:40:00.070Z,9.90
2019-05-04T05:42:25.038Z,9.50
2019-05-04T05:44:54.731Z,9.40
2019-05-04T05:47:27.853Z,9.70
2019-05-04T05:49:59.806Z,9.50
2019-05-04T05:52:31.324Z,9.50
2019-05-04T05:55:02.131Z,9.50
2019-05-04T05:57:50.565Z,9.50
2019-05-04T06:00:21.327Z,9.50
2019-05-04T06:02:57.394Z,9.70
2019-05-04T06:05:35.214Z,9.40
2019-05-04T06:08:09.577Z,9.80
2019-05-04T06:10:38.923Z,9.80
2019-05-04T06:13:29.298Z,9.70
2019-05-04T06:15:58.453Z,9.60
2019-05-04T06:18:28.708Z,9.90
2019-05-04T06:21:01.608Z,9.40
2019-05-04T06:23:48.002Z,9.40
2019-05-04T06:26:29.785Z,9.50
2019-05-04T06:29:07.102Z,9.90
2019-05-04T06:31:41.114Z,9.40
2019-05-04T06:34:08.699Z,9.50
2019-05-04T06:36:39.900Z,9.60
2019-05-04T06:39:30.177Z,9.50
2019-05-04T06:41:57.878Z,9.40
2019-05-04T06:44:34.302Z,9.50
2019-05-04T06:47:11.842Z,9.90
2019-05-04T06:49:35.128Z,9.60
2019-05-04T06:52:05.401Z,9.70
2019-05-04T06:54:49.067Z,9.70
2019-05-04T06:57:13.018Z,9.50
2019-05-04T06:59:41.303Z,9.80
2019-05-04T07:02:09.969Z,9.60
2019-05-04T07:04:42.440Z,9.80
2019-05-04T07:07:12.875Z,9.70
2019-05-04T07:09:46.241Z,9.60
2019-05-04T07:12:11.502Z,9.80
2019-05-04T07:14:59.667Z,9.90
2019-05-04T07:17:28.449Z,9.80
2019-05-04T07:20:00.182Z,9.70
2019-05-04T07:22:28.741Z,9.90
2019-05-04T07:24:57.996Z,9.80
2019-05-04T07:27:26.736Z,9.90
2019-05-04T07:29:58.269Z,9.80
2019-05-04T07:32:29.305Z,10.00
2019-05-04T07:34:56.349Z,10.00
2019-05-04T07:37:30.209Z,10.00
2019-05-04T07:40:07.485Z,10.20
2019-05-04T07:42:35.914Z,10.50
2019-05-04T07:45:05.193Z,10.30
2019-05-04T07:47:34.380Z,10.30
2019-05-04T07:50:04.971Z,10.40
2019-05-04T07:52:35.275Z,10.30
2019-05-04T07:55:06.530Z,10.40
2019-05-04T07:57:35.219Z,10.60
2019-05-04T08:00:18.364Z,10.70
2019-05-04T08:02:48.984Z,10.70
2019-05-04T08:05:26.188Z,10.80
2019-05-04T08:07:47.546Z,10.90
2019-05-04T08:10:20.481Z,10.60
2019-05-04T08:12:56.590Z,11.00
2019-05-04T08:15:17.883Z,10.80
2019-05-04T08:17:47.027Z,10.90
2019-05-04T08:20:21.012Z,10.70
2019-05-04T08:22:58.908Z,10.80
2019-05-04T08:25:24.773Z,10.30
2019-05-04T08:27:54.673Z,10.50
2019-05-04T08:30:25.051Z,10.40
2019-05-04T08:32:54.693Z,10.30
2019-05-04T08:35:29.133Z,10.30
2019-05-04T08:37:55.482Z,10.20
2019-05-04T08:40:25.061Z,10.30
2019-05-04T08:42:54.772Z,10.40
2019-05-04T08:45:25.494Z,10.30
2019-05-04T08:47:58.561Z,10.40
2019-05-04T08:50:27.248Z,10.20
2019-05-04T08:53:07.303Z,10.20
2019-05-04T08:55:40.867Z,10.30
2019-05-04T08:58:14.932Z,10.40
2019-05-04T09:00:45.159Z,10.40
2019-05-04T09:03:25.850Z,10.40
2019-05-04T09:06:11.666Z,10.60
2019-05-04T09:08:25.648Z,11.10
2019-05-04T09:11:16.612Z,10.90
2019-05-04T09:13:26.442Z,10.90
2019-05-04T09:15:59.619Z,10.70
2019-05-04T09:18:29.601Z,10.40
2019-05-04T09:20:57.905Z,10.50
2019-05-04T09:23:28.201Z,10.40
2019-05-04T09:26:01.945Z,10.30
2019-05-04T09:28:27.740Z,10.50
2019-05-04T09:31:01.500Z,10.50
2019-05-04T09:33:32.688Z,10.40
2019-05-04T09:36:04.770Z,10.60
2019-05-04T09:38:32.605Z,10.80
2019-05-04T09:40:59.662Z,10.90
2019-05-04T09:43:36.097Z,10.70
2019-05-04T09:46:00.219Z,10.60
2019-05-04T09:48:29.315Z,10.70
2019-05-04T09:50:59.555Z,10.60
2019-05-04T09:53:35.393Z,10.80
2019-05-04T09:55:58.748Z,10.70
2019-05-04T09:58:30.032Z,10.90
2019-05-04T10:00:59.710Z,11.00
2019-05-04T10:03:28.452Z,11.00
2019-05-04T10:05:57.129Z,10.90
2019-05-04T10:08:25.860Z,11.10
2019-05-04T10:10:56.355Z,11.20
2019-05-04T10:13:38.787Z,11.30
2019-05-04T10:16:09.037Z,11.60
2019-05-04T10:18:39.317Z,11.60
2019-05-04T10:21:08.007Z,11.50
2019-05-04T10:23:36.704Z,11.80
2019-05-04T10:26:21.855Z,11.50
2019-05-04T10:28:55.437Z,11.40
2019-05-04T10:31:24.450Z,11.40
2019-05-04T10:33:55.353Z,11.40
2019-05-04T10:36:24.667Z,11.30
2019-05-04T10:38:55.031Z,11.20
2019-05-04T10:41:24.956Z,10.80
2019-05-04T10:43:54.719Z,10.90
2019-05-04T10:46:25.248Z,10.60
2019-05-04T10:48:54.304Z,10.70
2019-05-04T10:51:25.374Z,10.30
2019-05-04T10:53:54.290Z,10.70
2019-05-04T10:56:24.910Z,10.50
2019-05-04T10:58:54.609Z,10.60
2019-05-04T11:01:25.170Z,11.00
2019-05-04T11:03:54.808Z,11.10
2019-05-04T11:06:25.407Z,11.20
2019-05-04T11:08:54.602Z,11.30
2019-05-04T11:11:25.905Z,11.40
2019-05-04T11:14:02.666Z,11.80
2019-05-04T11:16:24.821Z,11.70
2019-05-04T11:18:55.077Z,11.80
2019-05-04T11:21:24.793Z,11.50
2019-05-04T11:23:55.014Z,11.80
2019-05-04T11:26:34.879Z,11.80
2019-05-04T11:29:05.257Z,12.00
2019-05-04T11:31:34.925Z,11.90
2019-05-04T11:34:05.054Z,12.00
2019-05-04T11:36:35.421Z,12.20
2019-05-04T11:39:06.670Z,12.30
2019-05-04T11:41:35.375Z,12.30
2019-05-04T11:44:04.785Z,12.30
2019-05-04T11:46:34.795Z,12.70
2019-05-04T11:49:04.644Z,12.60
2019-05-04T11:51:34.747Z,12.30
2019-05-04T11:54:04.853Z,11.70
2019-05-04T11:56:34.808Z,11.40
2019-05-04T11:59:05.477Z,11.20
2019-05-04T12:01:34.527Z,10.90
2019-05-04T12:04:07.670Z,11.00
2019-05-04T12:06:47.613Z,11.00
2019-05-04T12:09:20.453Z,11.20
2019-05-04T12:11:49.159Z,11.50
2019-05-04T12:14:17.882Z,11.40
2019-05-04T12:16:46.629Z,11.50
2019-05-04T12:19:15.351Z,11.70
2019-05-04T12:21:44.037Z,11.90
2019-05-04T12:24:14.330Z,11.90
2019-05-04T12:26:44.541Z,12.00
2019-05-04T12:29:15.196Z,12.20
2019-05-04T12:31:44.324Z,11.90
2019-05-04T12:34:14.823Z,12.10
2019-05-04T12:36:44.627Z,12.00
2019-05-04T12:39:14.564Z,11.40
2019-05-04T12:41:44.971Z,11.20
2019-05-04T12:44:14.761Z,11.20
2019-05-04T12:46:44.724Z,11.30
2019-05-04T12:49:15.299Z,11.40
2019-05-04T12:51:45.553Z,11.30
2019-05-04T12:54:14.698Z,11.50
2019-05-04T12:56:43.485Z,11.70
2019-05-04T12:59:14.325Z,11.90
2019-05-04T13:01:42.603Z,11.60
2019-05-04T13:04:11.313Z,11.80
2019-05-04T13:06:40.097Z,11.90
2019-05-04T13:09:09.013Z,11.70
2019-05-04T13:11:37.724Z,11.30
2019-05-04T13:14:15.195Z,11.60
2019-05-04T13:16:37.231Z,11.30
2019-05-04T13:19:09.995Z,11.40
2019-05-04T13:21:38.906Z,11.50
2019-05-04T13:24:07.576Z,11.50
2019-05-04T13:26:36.295Z,11.40
2019-05-04T13:29:05.918Z,11.60
2019-05-04T13:31:35.444Z,11.80
2019-05-04T13:34:05.190Z,11.80
2019-05-04T13:36:35.092Z,11.60
2019-05-04T13:39:05.349Z,12.00
2019-05-04T13:41:34.548Z,11.70
2019-05-04T13:44:04.973Z,11.90
2019-05-04T13:46:35.201Z,12.30
2019-05-04T13:49:04.606Z,12.20
2019-05-04T13:51:35.016Z,12.30
2019-05-04T13:54:06.388Z,12.00
2019-05-04T13:56:51.138Z,12.20
2019-05-04T13:59:25.111Z,12.10
2019-05-04T14:01:55.544Z,12.10
2019-05-04T14:04:25.770Z,11.70
2019-05-04T14:06:55.257Z,10.90
2019-05-04T14:09:24.275Z,10.60
2019-05-04T14:11:55.377Z,10.00
2019-05-04T14:14:24.834Z,9.60
2019-05-04T14:16:55.234Z,9.40
2019-05-04T14:19:24.611Z,9.10
2019-05-04T14:21:55.138Z,9.30
2019-05-04T14:24:25.145Z,9.30
2019-05-04T14:26:55.116Z,9.20
2019-05-04T14:29:24.436Z,9.40
2019-05-04T14:31:54.666Z,9.70
2019-05-04T14:34:24.416Z,9.90
2019-05-04T14:36:53.462Z,9.70
2019-05-04T14:39:22.131Z,10.00
2019-05-04T14:41:50.891Z,10.10
2019-05-04T14:44:32.943Z,10.00
2019-05-04T14:47:04.745Z,10.50
2019-05-04T14:49:34.195Z,10.70
2019-05-04T14:52:03.270Z,11.10
2019-05-04T14:54:32.142Z,11.40
2019-05-04T14:57:01.773Z,11.50
2019-05-04T14:59:30.614Z,11.70
2019-05-04T15:01:59.331Z,11.70
2019-05-04T15:04:28.031Z,11.70
2019-05-04T15:06:59.442Z,11.80
2019-05-04T15:09:27.158Z,11.90
2019-05-04T15:11:55.840Z,12.00
2019-05-04T15:14:27.034Z,12.00
2019-05-04T15:16:55.020Z,11.80
2019-05-04T15:19:25.871Z,11.60
2019-05-04T15:21:56.177Z,11.80
2019-05-04T15:24:25.060Z,11.70
2019-05-04T15:26:55.688Z,11.60
2019-05-04T15:29:25.610Z,11.90
2019-05-04T15:31:54.494Z,11.50
2019-05-04T15:34:25.103Z,11.40
2019-05-04T15:36:54.264Z,11.40
2019-05-04T15:39:24.210Z,11.60
2019-05-04T15:41:53.233Z,11.40
2019-05-04T15:44:21.926Z,11.40
2019-05-04T15:46:50.709Z,11.40
2019-05-04T15:49:19.438Z,11.40
2019-05-04T15:52:19.717Z,11.30
2019-05-04T15:54:42.419Z,11.30
2019-05-04T15:57:14.741Z,11.20
2019-05-04T15:59:45.130Z,11.00
2019-05-04T16:02:14.996Z,10.70
2019-05-04T16:04:44.197Z,10.60
2019-05-04T16:07:14.497Z,10.40
2019-05-04T16:09:47.614Z,10.30
2019-05-04T16:12:15.265Z,10.30
2019-05-04T16:14:51.131Z,10.30
2019-05-04T16:17:14.749Z,10.20
2019-05-04T16:19:45.620Z,10.30
2019-05-04T16:22:15.280Z,9.90
2019-05-04T16:24:45.244Z,10.00
2019-05-04T16:27:15.728Z,10.10
2019-05-04T16:29:44.949Z,10.30
2019-05-04T16:32:13.856Z,10.60
2019-05-04T16:34:46.039Z,10.90
2019-05-04T16:37:14.992Z,11.20
2019-05-04T16:39:45.270Z,11.40
2019-05-04T16:42:14.618Z,11.60
2019-05-04T16:44:46.375Z,11.50
2019-05-04T16:47:15.303Z,11.40
2019-05-04T16:49:44.438Z,11.00
2019-05-04T16:52:32.510Z,11.30
2019-05-04T16:55:11.885Z,11.30
2019-05-04T16:57:42.637Z,11.40
2019-05-04T17:00:44.956Z,11.00
2019-05-04T17:03:19.461Z,10.80
2019-05-04T17:05:52.458Z,10.70
2019-05-04T17:08:25.026Z,10.70
2019-05-04T17:10:55.103Z,10.80
2019-05-04T17:13:25.267Z,10.30
2019-05-04T17:16:08.564Z,10.30
2019-05-04T17:18:27.852Z,10.60
2019-05-04T17:20:58.593Z,10.10
2019-05-04T17:23:30.502Z,10.20
2019-05-04T17:26:04.520Z,10.10
2019-05-04T17:28:37.796Z,9.80
2019-05-04T17:31:11.321Z,9.60
2019-05-04T17:33:44.717Z,9.60
2019-05-04T17:36:14.758Z,9.50
2019-05-04T17:38:44.485Z,9.30
2019-05-04T17:41:15.273Z,9.20
2019-05-04T17:43:45.593Z,9.20
2019-05-04T17:46:22.992Z,9.50
2019-05-04T17:48:44.939Z,9.50
2019-05-04T17:51:14.434Z,9.70
2019-05-04T17:53:44.773Z,9.60
2019-05-04T17:56:15.480Z,9.70
2019-05-04T17:58:44.532Z,9.50
2019-05-04T18:01:17.687Z,9.90
2019-05-04T18:03:50.484Z,9.60
2019-05-04T18:06:19.168Z,9.70
2019-05-04T18:08:47.996Z,9.90
2019-05-04T18:11:18.331Z,10.20
2019-05-04T18:13:48.851Z,10.50
2019-05-04T18:16:24.022Z,10.40
2019-05-04T18:19:00.118Z,10.30
2019-05-04T18:21:28.863Z,10.40
2019-05-04T18:23:57.658Z,10.40
2019-05-04T18:26:27.639Z,10.20
2019-05-04T18:28:56.622Z,10.20
2019-05-04T18:31:27.110Z,10.10
2019-05-04T18:33:55.863Z,9.90
2019-05-04T18:36:24.854Z,9.90
2019-05-04T18:38:53.520Z,9.60
2019-05-04T18:41:26.866Z,9.90
2019-05-04T18:44:04.608Z,9.90
2019-05-04T18:46:52.106Z,9.70
2019-05-04T18:49:15.759Z,9.80
2019-05-04T18:51:45.275Z,9.80
2019-05-04T18:54:14.379Z,9.80
2019-05-04T18:56:44.399Z,9.70
2019-05-04T18:59:14.695Z,9.80
2019-05-04T19:01:45.158Z,9.60
2019-05-04T19:04:16.535Z,9.70
2019-05-04T19:07:06.411Z,9.50
2019-05-04T19:09:38.352Z,10.00
2019-05-04T19:12:08.836Z,9.90
2019-05-04T19:14:40.779Z,9.90
2019-05-04T19:17:11.135Z,10.00
2019-05-04T19:19:38.546Z,10.20
2019-05-04T19:22:07.235Z,10.30
2019-05-04T19:24:40.109Z,10.40
2019-05-04T19:27:09.143Z,10.50
2019-05-04T19:29:37.907Z,10.50
2019-05-04T19:32:06.871Z,10.40
2019-05-04T19:34:35.837Z,10.60
2019-05-04T19:37:05.052Z,10.50
2019-05-04T19:39:35.264Z,10.50
2019-05-04T19:42:06.456Z,10.30
2019-05-04T19:44:39.663Z,10.30
2019-05-04T19:47:20.706Z,10.30
2019-05-04T19:49:45.289Z,10.40
2019-05-04T19:52:15.509Z,10.20
2019-05-04T19:54:45.454Z,10.30
2019-05-04T19:57:16.007Z,10.30
2019-05-04T19:59:44.649Z,10.40
2019-05-04T20:02:13.575Z,10.40
2019-05-04T20:04:42.325Z,10.30
2019-05-04T20:07:21.946Z,10.40
2019-05-04T20:09:52.246Z,10.50
2019-05-04T20:12:26.204Z,10.30
2019-05-04T20:15:10.829Z,10.30
2019-05-04T20:17:36.037Z,10.20
2019-05-04T20:19:55.273Z,10.00
2019-05-04T20:22:25.407Z,9.90
2019-05-04T20:24:57.376Z,9.90
2019-05-04T20:27:25.496Z,9.90
2019-05-04T20:29:54.532Z,9.90
2019-05-04T20:32:25.372Z,10.00
2019-05-04T20:34:55.597Z,9.90
2019-05-04T20:37:26.136Z,9.80
2019-05-04T20:39:55.057Z,9.90
2019-05-04T20:42:25.963Z,9.90
2019-05-04T20:45:00.649Z,9.90
2019-05-04T20:47:47.223Z,10.00
2019-05-04T20:50:09.466Z,10.30
2019-05-04T20:52:39.827Z,10.20
2019-05-04T20:55:09.361Z,9.90
2019-05-04T20:57:38.136Z,10.30
2019-05-04T21:00:11.762Z,10.30
2019-05-04T21:02:41.795Z,10.20
2019-05-04T21:05:25.119Z,9.80
2019-05-04T21:07:54.412Z,9.80
2019-05-04T21:10:25.019Z,9.90
2019-05-04T21:12:54.841Z,9.90
2019-05-04T21:15:24.736Z,9.90
2019-05-04T21:18:03.656Z,9.60
2019-05-04T21:20:37.149Z,9.60
2019-05-04T21:23:06.108Z,9.40
2019-05-04T21:25:35.520Z,9.50
2019-05-04T21:28:05.361Z,9.70
2019-05-04T21:30:35.832Z,9.60
2019-05-04T21:33:05.254Z,9.60
2019-05-04T21:35:35.582Z,9.60
2019-05-04T21:38:05.162Z,9.80
2019-05-04T21:40:35.532Z,9.90
2019-05-04T21:43:04.954Z,9.90
2019-05-04T21:45:35.622Z,10.30
2019-05-04T21:48:19.560Z,10.40
2019-05-04T21:50:47.221Z,10.40
2019-05-04T21:53:15.941Z,10.40
2019-05-04T21:55:44.750Z,10.50
2019-05-04T21:58:15.188Z,10.40
2019-05-04T22:00:50.345Z,10.20
2019-05-04T22:03:34.952Z,10.20
2019-05-04T22:06:05.261Z,10.10
2019-05-04T22:08:34.000Z,10.30
2019-05-04T22:11:04.266Z,10.20
2019-05-04T22:13:34.776Z,10.30
2019-05-04T22:16:05.208Z,10.40
2019-05-04T22:18:34.828Z,10.40
2019-05-04T22:21:05.513Z,10.40
2019-05-04T22:23:35.137Z,10.30
2019-05-04T22:26:05.037Z,10.30
2019-05-04T22:28:33.837Z,10.40
2019-05-04T22:31:04.448Z,10.40
2019-05-04T22:33:35.398Z,10.30
2019-05-04T22:36:07.671Z,10.20
2019-05-04T22:38:37.949Z,10.40
2019-05-04T22:41:06.706Z,10.20
2019-05-04T22:43:35.400Z,10.20
2019-05-04T22:46:05.281Z,10.20
2019-05-04T22:48:45.850Z,10.20
2019-05-04T22:51:05.276Z,10.30
2019-05-04T22:53:35.772Z,10.10
2019-05-04T22:56:11.499Z,10.30
2019-05-04T22:58:47.642Z,10.20
2019-05-04T23:01:17.944Z,10.10
2019-05-04T23:03:48.297Z,10.30
2019-05-04T23:06:17.427Z,10.00
2019-05-04T23:08:46.093Z,10.00
2019-05-04T23:11:15.152Z,10.00
2019-05-04T23:13:43.989Z,9.60
2019-05-04T23:16:14.850Z,10.00
2019-05-04T23:18:44.926Z,9.90
2019-05-04T23:21:15.106Z,9.70
2019-05-04T23:23:44.359Z,9.50
2019-05-04T23:26:14.983Z,9.60
2019-05-04T23:28:45.338Z,9.50
2019-05-04T23:31:16.399Z,9.40
2019-05-04T23:33:45.023Z,9.30
2019-05-04T23:36:15.129Z,9.40
2019-05-04T23:38:44.495Z,9.40
2019-05-04T23:41:13.436Z,9.20
2019-05-04T23:43:42.334Z,9.30
2019-05-04T23:46:11.835Z,9.20
2019-05-04T23:48:40.510Z,9.20
2019-05-04T23:51:09.242Z,9.10
2019-05-04T23:53:37.941Z,9.40
2019-05-04T23:56:06.789Z,9.20
2019-05-04T23:58:42.823Z,8.90
